Time;durP1;ratioP1;P1;durP2;ratioP2;P2;SDS_P1;SDS_P2;PMS_P1;PMS_P2;Temp;Humidity;BMP_temperature;BMP_pressure;BME280_temperature;BME280_humidity;BME280_pressure;Samples;Min_cycle;Max_cycle;Signal;HPM_P1;HPM_P2
2022/10/25 00:01:23;;;;;;;11.27;3.58;;;11.40;99.90;;;;;;5108793;28;20609;-84
2022/10/25 00:03:50;;;;;;;10.65;3.67;;;11.50;99.90;;;;;;5109608;28;20069;-84
2022/10/25 00:06:17;;;;;;;12.05;3.63;;;11.40;99.90;;;;;;5109247;28;20051;-84
2022/10/25 00:08:44;;;;;;;11.93;3.78;;;11.40;99.90;;;;;;5089137;28;20051;-84
2022/10/25 00:11:18;;;;;;;9.60;4.32;;;11.50;99.90;;;;;;5071837;28;20036;-84
2022/10/25 00:13:46;;;;;;;18.13;4.43;;;11.50;99.90;;;;;;5089470;28;20041;-84
2022/10/25 00:16:17;;;;;;;10.93;4.50;;;11.50;99.90;;;;;;5102671;28;20048;-83
2022/10/25 00:18:44;;;;;;;12.90;4.35;;;11.60;99.90;;;;;;5109018;28;20068;-84
2022/10/25 00:21:11;;;;;;;10.15;4.40;;;11.60;99.90;;;;;;5076173;28;20088;-83
2022/10/25 00:23:37;;;;;;;11.35;4.38;;;11.60;99.90;;;;;;5079074;28;20032;-84
2022/10/25 00:26:06;;;;;;;7.35;3.22;;;11.60;99.90;;;;;;5109558;28;20039;-84
2022/10/25 00:28:37;;;;;;;13.48;3.78;;;11.50;99.90;;;;;;5108571;28;20097;-84
2022/10/25 00:31:07;;;;;;;11.15;4.53;;;11.50;99.90;;;;;;5126100;28;20094;-84
2022/10/25 00:33:35;;;;;;;7.40;3.63;;;11.50;99.90;;;;;;5125490;28;20032;-84
2022/10/25 00:36:03;;;;;;;9.55;3.95;;;11.50;99.90;;;;;;5075184;28;20089;-84
2022/10/25 00:38:30;;;;;;;10.63;4.22;;;11.40;99.90;;;;;;5072177;28;20047;-84
2022/10/25 00:40:57;;;;;;;13.18;4.40;;;11.50;99.90;;;;;;5077329;28;20556;-84
2022/10/25 00:43:41;;;;;;;9.85;3.88;;;11.40;99.90;;;;;;5092267;28;20036;-84
2022/10/25 00:46:30;;;;;;;10.27;4.22;;;11.40;99.90;;;;;;5109247;28;20407;-84
2022/10/25 00:49:11;;;;;;;11.48;4.38;;;11.40;99.90;;;;;;5108818;28;20488;-84
2022/10/25 00:51:45;;;;;;;11.45;4.30;;;11.30;99.90;;;;;;5112059;28;20071;-84
2022/10/25 00:54:16;;;;;;;10.40;3.97;;;11.40;99.90;;;;;;5129914;28;20039;-84
2022/10/25 00:56:47;;;;;;;10.43;4.63;;;11.40;99.90;;;;;;5113063;28;20097;-84
2022/10/25 00:59:18;;;;;;;13.85;4.78;;;11.40;99.90;;;;;;5112053;28;20032;-83
2022/10/25 01:01:48;;;;;;;14.57;4.50;;;11.50;99.90;;;;;;5106132;28;20047;-84
2022/10/25 01:04:17;;;;;;;16.08;4.57;;;11.50;99.90;;;;;;5075925;28;20068;-83
2022/10/25 01:06:49;;;;;;;13.15;4.95;;;11.50;99.90;;;;;;5076273;28;20091;-84
2022/10/25 01:09:23;;;;;;;14.90;5.93;;;11.50;99.90;;;;;;5109134;28;20072;-83
2022/10/25 01:11:49;;;;;;;14.52;5.65;;;11.50;99.90;;;;;;5096609;28;20122;-84
2022/10/25 01:14:17;;;;;;;13.55;5.53;;;11.50;99.90;;;;;;5129232;28;20146;-83
2022/10/25 01:17:17;;;;;;;11.93;5.55;;;11.60;99.90;;;;;;5095646;28;20070;-84
2022/10/25 01:19:53;;;;;;;14.02;5.50;;;11.60;99.90;;;;;;5112356;28;20051;-84
2022/10/25 01:22:52;;;;;;;18.40;6.20;;;11.60;99.90;;;;;;5111810;28;20029;-83
2022/10/25 01:25:27;;;;;;;13.20;5.80;;;11.60;99.90;;;;;;5128885;28;20404;-83
2022/10/25 01:28:04;;;;;;;12.48;5.80;;;11.70;99.90;;;;;;5112317;28;20040;-84
2022/10/25 01:30:50;;;;;;;19.88;6.68;;;11.80;99.90;;;;;;5111367;28;20035;-84
2022/10/25 01:33:35;;;;;;;14.33;6.70;;;11.80;99.90;;;;;;5114818;28;20119;-84
2022/10/25 01:36:46;;;;;;;14.00;5.78;;;11.90;99.90;;;;;;5107291;28;20044;-84
2022/10/25 01:39:24;;;;;;;14.07;6.15;;;12.00;99.90;;;;;;5054087;28;20047;-84
2022/10/25 01:42:16;;;;;;;17.27;6.32;;;12.10;99.90;;;;;;5069753;28;20051;-84
2022/10/25 01:45:04;;;;;;;15.20;6.88;;;12.10;99.90;;;;;;5100382;28;20522;-82
2022/10/25 01:47:48;;;;;;;13.77;6.47;;;12.10;99.90;;;;;;5111571;28;20040;-82
2022/10/25 01:50:26;;;;;;;15.82;6.43;;;12.20;99.90;;;;;;5111719;28;20036;-82
2022/10/25 01:52:53;;;;;;;19.25;6.93;;;12.20;99.90;;;;;;5111505;28;20044;-82
2022/10/25 01:55:24;;;;;;;18.80;6.80;;;12.20;99.90;;;;;;5060230;28;20070;-82
2022/10/25 01:58:07;;;;;;;23.00;6.72;;;12.20;99.90;;;;;;5091824;28;20552;-82
2022/10/25 02:01:01;;;;;;;19.55;7.15;;;12.30;99.90;;;;;;5093302;28;20028;-82
2022/10/25 02:03:51;;;;;;;14.18;6.90;;;12.30;99.90;;;;;;5103816;28;20101;-82
2022/10/25 02:06:33;;;;;;;17.08;6.43;;;12.30;99.90;;;;;;5108147;28;20040;-82
2022/10/25 02:09:18;;;;;;;13.30;6.90;;;12.30;99.90;;;;;;5091423;28;20048;-83
2022/10/25 02:11:46;;;;;;;16.25;6.35;;;12.50;99.90;;;;;;5090947;28;20036;-82
2022/10/25 02:14:31;;;;;;;14.60;6.60;;;12.50;99.90;;;;;;5092646;28;20036;-82
2022/10/25 02:17:01;;;;;;;16.52;6.97;;;12.50;99.90;;;;;;5127597;28;20044;-83
2022/10/25 02:19:32;;;;;;;16.67;6.32;;;12.50;99.90;;;;;;5127595;28;20036;-84
2022/10/25 02:22:01;;;;;;;13.98;6.65;;;12.60;99.90;;;;;;5111413;28;20051;-84
2022/10/25 02:24:30;;;;;;;19.50;7.50;;;12.60;99.90;;;;;;5094232;28;20489;-84
2022/10/25 02:26:59;;;;;;;11.90;6.57;;;12.60;99.90;;;;;;5111097;28;20051;-85
2022/10/25 02:29:30;;;;;;;17.65;7.20;;;12.60;99.90;;;;;;5110925;28;20044;-82
2022/10/25 02:31:57;;;;;;;12.00;5.88;;;12.50;99.90;;;;;;5110931;28;20043;-82
2022/10/25 02:34:24;;;;;;;14.38;6.40;;;12.60;99.90;;;;;;5090372;28;20578;-82
2022/10/25 02:36:53;;;;;;;14.18;5.97;;;12.50;99.90;;;;;;5106771;28;20080;-82
2022/10/25 02:39:21;;;;;;;14.15;6.20;;;12.60;99.90;;;;;;5090561;28;20123;-82
2022/10/25 02:41:48;;;;;;;20.70;6.60;;;12.60;99.90;;;;;;5107190;28;20040;-82
2022/10/25 02:44:15;;;;;;;16.13;6.20;;;12.60;99.90;;;;;;5074452;28;20481;-82
2022/10/25 02:46:41;;;;;;;15.30;6.43;;;12.50;99.90;;;;;;5073711;28;20036;-82
2022/10/25 02:49:08;;;;;;;11.73;5.63;;;12.50;99.90;;;;;;5078134;28;20039;-83
2022/10/25 02:51:35;;;;;;;14.93;6.20;;;12.50;99.90;;;;;;5094066;28;20385;-83
2022/10/25 02:54:02;;;;;;;13.05;5.35;;;12.50;99.90;;;;;;5110721;28;20512;-83
2022/10/25 02:56:28;;;;;;;14.52;5.30;;;12.50;99.90;;;;;;5090190;28;20443;-82
2022/10/25 02:58:57;;;;;;;11.43;5.40;;;12.60;99.90;;;;;;5090811;28;20094;-83
2022/10/25 03:01:24;;;;;;;12.63;5.60;;;12.60;99.90;;;;;;5092016;28;20037;-83
2022/10/25 03:03:51;;;;;;;11.93;6.00;;;12.50;99.90;;;;;;5093470;28;20089;-83
2022/10/25 03:06:18;;;;;;;12.20;5.97;;;12.60;99.90;;;;;;5110037;28;20036;-83
2022/10/25 03:08:45;;;;;;;14.35;5.97;;;12.60;99.90;;;;;;5110137;28;20036;-82
2022/10/25 03:11:13;;;;;;;13.95;5.95;;;12.60;99.90;;;;;;5093677;28;20153;-83
2022/10/25 03:13:42;;;;;;;17.23;5.82;;;12.60;99.90;;;;;;5126751;28;20458;-83
2022/10/25 03:16:09;;;;;;;11.10;5.70;;;12.60;99.90;;;;;;5109910;28;20555;-82
2022/10/25 03:18:36;;;;;;;14.30;5.88;;;12.60;99.90;;;;;;5092997;28;20178;-82
2022/10/25 03:21:04;;;;;;;14.73;6.32;;;12.60;99.90;;;;;;5077025;28;20052;-82
2022/10/25 03:23:31;;;;;;;15.20;5.70;;;12.60;99.90;;;;;;5109477;28;20043;-83
2022/10/25 03:25:59;;;;;;;16.25;5.85;;;12.60;99.90;;;;;;5093302;28;20066;-82
2022/10/25 03:28:27;;;;;;;12.68;5.82;;;12.60;99.90;;;;;;5127049;28;20048;-83
2022/10/25 03:30:55;;;;;;;14.13;5.93;;;12.60;99.90;;;;;;5109875;28;20036;-82
2022/10/25 03:33:23;;;;;;;16.17;6.13;;;12.60;99.90;;;;;;5109197;28;20043;-82
2022/10/25 03:35:51;;;;;;;14.50;5.57;;;12.60;99.90;;;;;;5126306;28;20124;-83
2022/10/25 03:38:18;;;;;;;14.30;5.32;;;12.60;99.90;;;;;;5077133;28;20434;-83
2022/10/25 03:40:45;;;;;;;12.27;4.97;;;12.60;99.90;;;;;;5109544;28;20093;-83
2022/10/25 03:43:12;;;;;;;11.88;5.38;;;12.60;99.90;;;;;;5109676;28;20082;-83
2022/10/25 03:45:38;;;;;;;11.43;5.38;;;12.60;99.90;;;;;;5109605;28;20441;-83
2022/10/25 03:48:05;;;;;;;17.48;5.20;;;12.60;99.90;;;;;;5089225;28;20120;-83
2022/10/25 03:50:32;;;;;;;13.45;5.30;;;12.60;99.90;;;;;;5105529;28;20039;-83
2022/10/25 03:52:59;;;;;;;12.15;5.43;;;12.50;99.90;;;;;;5089323;28;20112;-83
2022/10/25 03:55:25;;;;;;;12.32;5.03;;;12.50;99.90;;;;;;5073334;28;20041;-83
2022/10/25 03:57:52;;;;;;;11.80;4.93;;;12.50;99.90;;;;;;5056216;28;20040;-83
2022/10/25 04:00:19;;;;;;;11.32;5.07;;;12.50;99.90;;;;;;5056152;28;20040;-83
2022/10/25 04:02:46;;;;;;;10.95;4.90;;;12.50;99.90;;;;;;5087387;28;20044;-82
2022/10/25 04:05:12;;;;;;;11.73;5.38;;;12.50;99.90;;;;;;5091653;28;20031;-83
2022/10/25 04:07:39;;;;;;;14.70;5.50;;;12.50;99.90;;;;;;5072331;28;20100;-82
2022/10/25 04:10:06;;;;;;;15.40;6.00;;;12.50;99.90;;;;;;5089749;28;20040;-83
2022/10/25 04:12:33;;;;;;;12.52;5.65;;;12.50;99.90;;;;;;5075356;28;20083;-83
2022/10/25 04:14:59;;;;;;;18.90;5.63;;;12.50;99.90;;;;;;5089117;28;20036;-82
2022/10/25 04:17:26;;;;;;;13.27;5.10;;;12.50;99.90;;;;;;5066534;28;20040;-82
2022/10/25 04:19:53;;;;;;;14.00;6.18;;;12.50;99.90;;;;;;5091992;28;20049;-83
2022/10/25 04:22:20;;;;;;;15.80;5.20;;;12.50;99.90;;;;;;5072963;28;20414;-82
2022/10/25 04:24:46;;;;;;;14.07;5.63;;;12.50;99.90;;;;;;5105248;28;20055;-81
2022/10/25 04:27:13;;;;;;;12.75;5.25;;;12.50;99.90;;;;;;5082895;28;20043;-82
2022/10/25 04:29:40;;;;;;;14.80;5.53;;;12.50;99.90;;;;;;5109718;28;20502;-82
2022/10/25 04:32:07;;;;;;;10.55;5.25;;;12.50;99.90;;;;;;5093224;28;20070;-82
2022/10/25 04:34:33;;;;;;;13.07;5.45;;;12.30;99.90;;;;;;5094426;28;20052;-82
2022/10/25 04:37:00;;;;;;;10.10;4.68;;;12.40;99.90;;;;;;5073747;28;20039;-82
2022/10/25 04:39:27;;;;;;;14.95;5.45;;;12.40;99.90;;;;;;5091902;28;20085;-82
2022/10/25 04:41:53;;;;;;;13.73;5.43;;;12.30;99.90;;;;;;5102144;28;20031;-82
2022/10/25 04:44:20;;;;;;;12.57;4.85;;;12.30;99.90;;;;;;5076649;28;20043;-82
2022/10/25 04:46:47;;;;;;;10.38;4.55;;;12.30;99.90;;;;;;5081734;28;20123;-82
2022/10/25 04:49:14;;;;;;;13.55;4.63;;;12.30;99.90;;;;;;5094767;28;20598;-82
2022/10/25 04:51:41;;;;;;;13.25;4.35;;;12.20;99.90;;;;;;5107399;28;20042;-81
2022/10/25 04:54:08;;;;;;;15.63;5.05;;;12.20;99.90;;;;;;5109018;28;20036;-82
2022/10/25 04:56:34;;;;;;;12.82;4.57;;;12.20;99.90;;;;;;5064406;28;20040;-82
2022/10/25 04:59:01;;;;;;;13.50;4.90;;;12.20;99.90;;;;;;5064819;28;20141;-82
2022/10/25 05:01:28;;;;;;;9.57;4.57;;;12.10;99.90;;;;;;5113886;28;20043;-83
2022/10/25 05:03:55;;;;;;;12.30;4.93;;;12.10;99.90;;;;;;5101188;28;20062;-82
2022/10/25 05:06:25;;;;;;;10.35;4.50;;;12.10;99.90;;;;;;5110406;28;20035;-83
2022/10/25 05:08:53;;;;;;;14.90;4.88;;;12.10;99.90;;;;;;5097086;28;20588;-82
2022/10/25 05:11:21;;;;;;;11.55;4.35;;;12.10;99.90;;;;;;5088415;28;20143;-82
2022/10/25 05:13:48;;;;;;;14.65;3.75;;;12.10;99.90;;;;;;5088686;28;20040;-82
2022/10/25 05:16:22;;;;;;;13.57;4.50;;;12.00;99.90;;;;;;5114037;28;20048;-82
2022/10/25 05:18:53;;;;;;;16.20;4.40;;;12.00;99.90;;;;;;5112903;28;20546;-82
2022/10/25 05:21:20;;;;;;;13.25;3.85;;;11.90;99.90;;;;;;5093059;28;20044;-82
2022/10/25 05:23:47;;;;;;;12.18;4.50;;;12.00;99.90;;;;;;5122854;28;20134;-83
2022/10/25 05:26:17;;;;;;;11.05;4.57;;;12.00;99.90;;;;;;5122277;28;20123;-83
2022/10/25 05:28:47;;;;;;;12.10;4.55;;;12.00;99.90;;;;;;5114872;28;20065;-82
2022/10/25 05:31:27;;;;;;;13.60;5.03;;;12.00;99.90;;;;;;5114254;28;20488;-83
2022/10/25 05:33:56;;;;;;;13.32;4.30;;;11.90;99.90;;;;;;5131182;28;20036;-82
2022/10/25 05:36:24;;;;;;;13.85;4.70;;;11.90;99.90;;;;;;5107906;28;20036;-83
2022/10/25 05:38:51;;;;;;;15.80;4.90;;;11.90;99.90;;;;;;5094936;28;20036;-82
2022/10/25 05:41:18;;;;;;;10.18;4.90;;;11.90;99.90;;;;;;5111916;28;20044;-83
2022/10/25 05:43:45;;;;;;;12.27;4.97;;;11.90;99.90;;;;;;5094204;28;20040;-83
2022/10/25 05:46:17;;;;;;;12.23;5.28;;;12.00;99.90;;;;;;5075529;28;20041;-83
2022/10/25 05:48:44;;;;;;;14.88;4.72;;;11.90;99.90;;;;;;5110607;28;20036;-83
2022/10/25 05:51:15;;;;;;;13.52;5.30;;;12.00;99.90;;;;;;5112144;28;20383;-83
2022/10/25 05:53:44;;;;;;;11.95;4.88;;;12.00;99.90;;;;;;5112651;28;20036;-83
2022/10/25 05:56:11;;;;;;;17.02;5.07;;;11.40;99.90;;;;;;5095425;28;20532;-82
2022/10/25 05:58:38;;;;;;;16.92;4.95;;;12.10;99.90;;;;;;5112219;28;20073;-82
2022/10/25 06:01:05;;;;;;;15.75;5.10;;;12.10;99.90;;;;;;5119005;28;20090;-82
2022/10/25 06:03:32;;;;;;;12.35;4.60;;;12.10;99.90;;;;;;5110261;28;20029;-82
2022/10/25 06:06:04;;;;;;;16.90;5.15;;;12.10;99.90;;;;;;5110311;28;20048;-82
2022/10/25 06:08:32;;;;;;;14.63;5.32;;;12.10;99.90;;;;;;5110803;28;20474;-84
2022/10/25 06:11:07;;;;;;;13.45;5.35;;;12.20;99.90;;;;;;5126942;28;20545;-83
2022/10/25 06:13:34;;;;;;;17.55;4.88;;;12.20;99.90;;;;;;5127520;28;20035;-83
2022/10/25 06:16:13;;;;;;;15.60;5.53;;;12.10;99.90;;;;;;5092981;28;20044;-83
2022/10/25 06:18:39;;;;;;;12.65;5.05;;;12.20;99.90;;;;;;5112764;28;20032;-83
2022/10/25 06:21:11;;;;;;;19.35;5.85;;;12.20;99.90;;;;;;5109814;28;20100;-83
2022/10/25 06:23:40;;;;;;;14.13;5.50;;;12.20;99.90;;;;;;5110414;28;20040;-83
2022/10/25 06:26:18;;;;;;;14.52;4.88;;;12.20;99.90;;;;;;5110895;28;20078;-83
2022/10/25 06:28:46;;;;;;;14.15;5.38;;;12.10;99.90;;;;;;5110219;28;20504;-83
2022/10/25 06:31:14;;;;;;;12.75;4.90;;;12.20;99.90;;;;;;5111102;28;20626;-83
2022/10/25 06:33:42;;;;;;;17.20;6.07;;;12.20;99.90;;;;;;5106820;28;20107;-83
2022/10/25 06:36:15;;;;;;;13.30;5.30;;;12.20;99.90;;;;;;5074464;28;20051;-83
2022/10/25 06:38:43;;;;;;;14.43;4.85;;;12.20;99.90;;;;;;5110098;28;20043;-83
2022/10/25 06:41:12;;;;;;;12.48;5.05;;;12.20;99.90;;;;;;5110512;28;20441;-83
2022/10/25 06:43:39;;;;;;;12.60;4.85;;;12.20;99.90;;;;;;5090034;28;20586;-84
2022/10/25 06:46:08;;;;;;;11.90;4.28;;;12.20;99.90;;;;;;5069020;28;20071;-83
2022/10/25 06:48:34;;;;;;;13.38;4.32;;;12.30;99.90;;;;;;5079823;28;20123;-84
2022/10/25 06:51:03;;;;;;;15.98;5.15;;;12.30;99.90;;;;;;5106472;28;20907;-83
2022/10/25 06:53:31;;;;;;;12.45;4.68;;;12.40;99.90;;;;;;5109711;28;20040;-83
2022/10/25 06:56:07;;;;;;;11.43;4.38;;;12.40;99.90;;;;;;5107615;28;20044;-82
2022/10/25 06:58:36;;;;;;;18.10;5.22;;;12.40;99.90;;;;;;5125337;28;20404;-83
2022/10/25 07:01:05;;;;;;;15.02;4.93;;;12.40;99.90;;;;;;5077474;28;20041;-83
2022/10/25 07:03:35;;;;;;;11.73;4.10;;;12.40;99.90;;;;;;5105683;28;20644;-84
2022/10/25 07:06:07;;;;;;;12.90;4.18;;;12.40;99.90;;;;;;5093255;28;20384;-84
2022/10/25 07:08:39;;;;;;;18.17;4.20;;;12.40;99.90;;;;;;5109946;28;20036;-83
2022/10/25 07:11:08;;;;;;;10.13;3.55;;;12.40;99.90;;;;;;5109346;28;20039;-83
2022/10/25 07:13:34;;;;;;;11.13;3.67;;;12.40;99.90;;;;;;5087509;28;20386;-82
2022/10/25 07:16:05;;;;;;;10.30;4.55;;;12.40;99.90;;;;;;5103493;28;20035;-83
2022/10/25 07:18:33;;;;;;;9.18;3.63;;;12.40;99.90;;;;;;5109949;28;20369;-83
2022/10/25 07:21:05;;;;;;;7.95;3.75;;;12.40;99.90;;;;;;5109005;28;20051;-82
2022/10/25 07:23:32;;;;;;;12.30;3.75;;;12.40;99.90;;;;;;5125157;28;20046;-83
2022/10/25 07:25:59;;;;;;;14.30;4.00;;;12.50;99.90;;;;;;5088416;28;20107;-82
2022/10/25 07:28:26;;;;;;;13.63;3.58;;;12.50;99.90;;;;;;5070421;28;20086;-82
2022/10/25 07:30:52;;;;;;;11.10;3.85;;;12.50;99.90;;;;;;5107268;28;20102;-82
2022/10/25 07:33:20;;;;;;;10.85;3.60;;;12.50;99.90;;;;;;5069779;28;20105;-83
2022/10/25 07:35:48;;;;;;;11.35;3.67;;;12.50;99.90;;;;;;5124202;28;20070;-82
2022/10/25 07:38:15;;;;;;;12.10;3.70;;;12.50;99.90;;;;;;5103991;28;20074;-83
2022/10/25 07:40:42;;;;;;;14.75;3.72;;;12.50;99.90;;;;;;5102398;28;20040;-82
2022/10/25 07:43:09;;;;;;;13.45;3.05;;;12.50;99.90;;;;;;5088708;28;20041;-82
2022/10/25 07:45:37;;;;;;;14.88;3.38;;;12.50;99.90;;;;;;5098707;28;20042;-82
2022/10/25 07:48:04;;;;;;;10.23;3.85;;;12.50;99.90;;;;;;5106915;28;20043;-82
2022/10/25 07:50:31;;;;;;;12.13;3.35;;;12.60;99.90;;;;;;5104570;28;20039;-83
2022/10/25 07:52:57;;;;;;;13.10;3.78;;;12.60;99.90;;;;;;5066786;28;20872;-82
2022/10/25 07:55:24;;;;;;;11.05;3.88;;;12.60;99.90;;;;;;5102338;28;20065;-82
2022/10/25 07:57:51;;;;;;;12.10;3.97;;;12.60;99.90;;;;;;5084088;28;20040;-82
2022/10/25 08:00:17;;;;;;;9.55;3.63;;;12.70;99.90;;;;;;5064390;28;20051;-82
2022/10/25 08:02:44;;;;;;;9.77;3.63;;;12.70;99.90;;;;;;5100063;28;20036;-82
2022/10/25 08:05:11;;;;;;;9.40;3.47;;;12.70;99.90;;;;;;5070345;28;20048;-82
2022/10/25 08:07:37;;;;;;;9.10;3.35;;;12.80;99.90;;;;;;5066245;28;20048;-82
2022/10/25 08:10:04;;;;;;;17.13;4.07;;;12.90;99.90;;;;;;5090366;28;20500;-82
2022/10/25 08:12:31;;;;;;;16.30;3.88;;;12.90;99.90;;;;;;5108824;28;20558;-83
2022/10/25 08:14:58;;;;;;;15.48;3.70;;;13.00;99.90;;;;;;5068530;28;20134;-82
2022/10/25 08:17:24;;;;;;;9.88;3.28;;;13.00;99.90;;;;;;5087927;28;20037;-82
2022/10/25 08:19:51;;;;;;;12.65;3.55;;;13.00;99.90;;;;;;5107060;28;20055;-82
2022/10/25 08:22:18;;;;;;;11.45;3.60;;;13.10;99.90;;;;;;5089904;28;20041;-82
2022/10/25 08:24:44;;;;;;;9.43;3.70;;;13.10;99.90;;;;;;5071309;28;20047;-82
2022/10/25 08:27:11;;;;;;;10.90;3.30;;;13.10;99.90;;;;;;5084990;28;20032;-83
2022/10/25 08:29:38;;;;;;;11.82;3.33;;;13.10;99.90;;;;;;5092237;28;20389;-82
2022/10/25 08:32:04;;;;;;;9.18;3.70;;;13.20;99.90;;;;;;5079206;28;20040;-82
2022/10/25 08:34:31;;;;;;;16.92;3.83;;;13.20;99.90;;;;;;5086998;28;20097;-83
2022/10/25 08:36:58;;;;;;;10.93;3.20;;;13.20;99.90;;;;;;5069878;28;20051;-82
2022/10/25 08:39:24;;;;;;;11.02;3.45;;;13.30;99.90;;;;;;5075072;28;20054;-83
2022/10/25 08:41:53;;;;;;;11.30;3.35;;;13.30;99.90;;;;;;5076684;28;20063;-82
2022/10/25 08:44:44;;;;;;;12.35;3.25;;;13.40;99.90;;;;;;5125742;28;20032;-82
2022/10/25 08:47:38;;;;;;;14.88;3.50;;;13.50;99.90;;;;;;5107546;28;20047;-82
2022/10/25 08:50:12;;;;;;;15.23;3.65;;;13.50;99.90;;;;;;5124864;28;20044;-82
2022/10/25 08:52:52;;;;;;;12.15;3.60;;;13.50;99.90;;;;;;5107902;28;20102;-83
2022/10/25 08:55:26;;;;;;;13.57;3.50;;;13.50;99.90;;;;;;5125061;28;20044;-82
2022/10/25 08:57:54;;;;;;;19.83;4.28;;;13.60;99.90;;;;;;5105484;28;20051;-82
2022/10/25 09:00:23;;;;;;;11.50;3.40;;;13.60;99.90;;;;;;5108154;28;20691;-82
2022/10/25 09:03:00;;;;;;;12.23;3.58;;;13.70;99.90;;;;;;5106837;28;20090;-90
2022/10/25 09:05:40;;;;;;;17.65;3.92;;;13.70;99.90;;;;;;5122230;28;20115;-89
2022/10/25 09:08:31;;;;;;;8.77;3.70;;;13.80;99.90;;;;;;5123574;28;20075;-88
2022/10/25 09:11:07;;;;;;;12.13;3.45;;;13.80;99.90;;;;;;5104323;28;20540;-81
2022/10/25 09:13:37;;;;;;;9.60;3.80;;;13.90;99.90;;;;;;5111610;28;20040;-81
2022/10/25 09:16:15;;;;;;;14.30;4.28;;;13.90;99.90;;;;;;5111732;28;20043;-82
2022/10/25 09:18:53;;;;;;;12.30;3.85;;;14.00;99.90;;;;;;5126695;28;20874;-82
2022/10/25 09:21:26;;;;;;;14.82;3.95;;;14.00;99.90;;;;;;5110728;28;20048;-82
2022/10/25 09:24:00;;;;;;;9.60;3.30;;;14.00;99.90;;;;;;5109470;28;20101;-82
2022/10/25 09:27:02;;;;;;;15.73;4.18;;;14.10;99.90;;;;;;5111437;28;20126;-81
2022/10/25 09:29:58;;;;;;;9.05;3.63;;;14.20;99.90;;;;;;5108381;28;20036;-82
2022/10/25 09:32:35;;;;;;;13.25;3.50;;;14.20;99.90;;;;;;5127902;28;20043;-82
2022/10/25 09:35:04;;;;;;;10.55;3.45;;;14.30;99.90;;;;;;5101065;28;20126;-82
2022/10/25 09:38:09;;;;;;;10.10;3.05;;;14.30;99.90;;;;;;5083882;28;20032;-82
2022/10/25 09:40:44;;;;;;;10.10;3.15;;;14.30;99.90;;;;;;5087563;28;20048;-81
2022/10/25 09:43:18;;;;;;;10.35;3.03;;;14.20;99.90;;;;;;5109663;28;20097;-82
2022/10/25 09:45:51;;;;;;;7.43;2.90;;;14.20;99.90;;;;;;5111117;28;20032;-82
2022/10/25 09:48:38;;;;;;;8.65;2.85;;;14.20;99.90;;;;;;5110396;28;20167;-82
2022/10/25 09:51:34;;;;;;;6.28;3.10;;;14.20;99.90;;;;;;5111062;28;20040;-82
2022/10/25 09:54:12;;;;;;;8.68;2.83;;;14.20;99.90;;;;;;5104791;28;20044;-81
2022/10/25 09:56:39;;;;;;;13.20;3.20;;;14.20;99.90;;;;;;5109643;28;20496;-82
2022/10/25 09:59:12;;;;;;;13.82;2.72;;;14.20;99.90;;;;;;5066536;28;20086;-82
2022/10/25 10:01:40;;;;;;;9.13;2.75;;;14.30;99.90;;;;;;5110319;28;20769;-82
2022/10/25 10:04:23;;;;;;;8.80;2.45;;;14.20;99.90;;;;;;5126020;28;20047;-82
2022/10/25 10:06:52;;;;;;;8.00;2.50;;;14.30;99.90;;;;;;5127120;28;20050;-82
2022/10/25 10:09:19;;;;;;;9.88;3.03;;;14.30;99.90;;;;;;5109541;28;20048;-82
2022/10/25 10:11:49;;;;;;;10.25;2.50;;;14.30;99.90;;;;;;5078083;28;20515;-82
2022/10/25 10:14:40;;;;;;;5.40;1.83;;;14.30;99.90;;;;;;5088478;28;20040;-82
2022/10/25 10:17:14;;;;;;;12.35;2.40;;;14.30;99.90;;;;;;5110141;28;20127;-82
2022/10/25 10:19:42;;;;;;;6.75;2.20;;;14.30;99.90;;;;;;5109564;28;20502;-82
2022/10/25 10:22:14;;;;;;;9.13;2.45;;;14.20;99.90;;;;;;5088302;28;20051;-82
2022/10/25 10:24:43;;;;;;;9.55;2.60;;;14.20;99.90;;;;;;5105938;28;20035;-82
2022/10/25 10:27:24;;;;;;;7.28;2.33;;;14.20;99.90;;;;;;5110275;28;21704;-82
2022/10/25 10:30:00;;;;;;;7.72;2.30;;;14.20;99.90;;;;;;5105815;28;20039;-83
2022/10/25 10:32:39;;;;;;;13.55;1.92;;;14.20;99.90;;;;;;5094373;28;20454;-82
2022/10/25 10:35:23;;;;;;;11.30;2.38;;;14.30;99.90;;;;;;5106360;28;20499;-82
2022/10/25 10:37:50;;;;;;;7.68;2.15;;;14.30;99.90;;;;;;5113872;28;20424;-81
2022/10/25 10:40:16;;;;;;;7.30;1.80;;;14.30;99.90;;;;;;5089383;28;20048;-81
2022/10/25 10:42:43;;;;;;;10.38;1.92;;;14.30;99.90;;;;;;5108190;28;20178;-82
2022/10/25 10:45:11;;;;;;;5.22;1.67;;;14.40;99.90;;;;;;5092484;28;20502;-82
2022/10/25 10:47:50;;;;;;;8.43;2.53;;;14.40;99.90;;;;;;5109097;28;20040;-82
2022/10/25 10:50:19;;;;;;;6.20;1.50;;;14.40;99.90;;;;;;5109535;28;20040;-80
2022/10/25 10:52:53;;;;;;;5.18;1.90;;;14.30;99.90;;;;;;5127469;28;20101;-81
2022/10/25 10:55:35;;;;;;;6.35;1.95;;;14.30;99.90;;;;;;5106800;28;20122;-80
2022/10/25 10:58:16;;;;;;;8.45;2.25;;;14.40;99.90;;;;;;5109480;28;20044;-81
2022/10/25 11:00:56;;;;;;;5.78;2.08;;;14.50;99.90;;;;;;5125454;28;20039;-88
2022/10/25 11:03:56;;;;;;;3.53;1.75;;;14.50;99.90;;;;;;5103298;28;20058;-91
2022/10/25 11:06:26;;;;;;;6.85;2.20;;;14.60;99.90;;;;;;5074139;28;20071;-92
2022/10/25 11:09:15;;;;;;;5.68;2.13;;;14.50;99.90;;;;;;5122211;28;20048;-87
2022/10/25 11:11:43;;;;;;;6.97;1.70;;;14.40;99.90;;;;;;5121053;28;20056;-89
2022/10/25 11:14:15;;;;;;;6.15;1.77;;;14.50;99.90;;;;;;5077107;28;20048;-89
2022/10/25 11:16:57;;;;;;;5.22;1.92;;;14.50;99.90;;;;;;5098004;28;20139;-88
2022/10/25 11:20:00;;;;;;;9.13;2.10;;;14.50;99.90;;;;;;5111488;28;20035;-88
2022/10/25 11:22:39;;;;;;;5.82;1.73;;;14.60;99.90;;;;;;5110807;28;20048;-87
2022/10/25 11:25:27;;;;;;;7.93;2.17;;;14.80;99.90;;;;;;5111143;28;20121;-87
2022/10/25 11:28:32;;;;;;;6.05;1.60;;;15.00;99.90;;;;;;5110862;28;20035;-89
2022/10/25 11:31:26;;;;;;;5.13;1.75;;;15.30;99.90;;;;;;5110514;28;20093;-87
2022/10/25 11:34:06;;;;;;;5.10;2.03;;;15.40;99.90;;;;;;5096050;28;20043;-88
2022/10/25 11:36:39;;;;;;;6.05;1.95;;;15.50;99.90;;;;;;5099882;28;20040;-86
2022/10/25 11:39:31;;;;;;;7.55;2.05;;;15.50;99.90;;;;;;5127748;28;20036;-86
2022/10/25 11:42:19;;;;;;;6.50;1.70;;;15.60;99.90;;;;;;5108986;28;20040;-90
2022/10/25 11:45:01;;;;;;;7.63;1.92;;;15.60;99.90;;;;;;5105615;28;20408;-90
2022/10/25 11:47:53;;;;;;;5.70;1.70;;;15.50;99.90;;;;;;5109992;28;20047;-86
2022/10/25 11:50:35;;;;;;;8.07;1.58;;;15.40;99.90;;;;;;5127269;28;20046;-87
2022/10/25 11:53:34;;;;;;;7.20;1.85;;;15.40;99.90;;;;;;5108810;28;20078;-88
2022/10/25 11:56:22;;;;;;;7.57;1.58;;;15.40;99.90;;;;;;5109907;28;20159;-86
2022/10/25 11:59:22;;;;;;;4.30;1.60;;;15.30;99.90;;;;;;5109499;28;20097;-86
2022/10/25 12:02:12;;;;;;;3.90;1.40;;;15.30;99.90;;;;;;5109695;28;20089;-86
2022/10/25 12:04:52;;;;;;;6.85;1.67;;;15.30;99.90;;;;;;5126809;28;20040;-86
2022/10/25 12:07:33;;;;;;;4.38;1.33;;;15.20;99.90;;;;;;5110017;28;20106;-86
2022/10/25 12:10:26;;;;;;;5.60;1.75;;;15.20;99.90;;;;;;5109967;28;20036;-86
2022/10/25 12:12:58;;;;;;;3.78;1.70;;;15.10;99.90;;;;;;5109363;28;20040;-86
2022/10/25 12:15:46;;;;;;;3.60;1.70;;;15.10;99.90;;;;;;5110267;28;20044;-86
2022/10/25 12:18:28;;;;;;;6.97;1.40;;;15.10;99.90;;;;;;5109915;28;20044;-86
2022/10/25 12:20:56;;;;;;;5.38;1.52;;;15.00;99.90;;;;;;5109806;28;20522;-87
2022/10/25 12:23:25;;;;;;;4.95;1.50;;;15.00;99.90;;;;;;5109631;28;20101;-86
2022/10/25 12:26:00;;;;;;;3.03;1.20;;;15.00;99.90;;;;;;5109272;28;20071;-86
2022/10/25 12:28:50;;;;;;;6.18;1.40;;;15.10;99.90;;;;;;5109612;28;20488;-86
2022/10/25 12:31:32;;;;;;;9.85;1.80;;;15.30;99.90;;;;;;5109997;28;20046;-87
2022/10/25 12:34:39;;;;;;;6.60;1.80;;;15.30;99.90;;;;;;5109763;28;20131;-86
2022/10/25 12:37:17;;;;;;;4.65;1.30;;;15.40;99.90;;;;;;5098982;28;20066;-87
2022/10/25 12:39:45;;;;;;;4.97;1.63;;;15.50;99.90;;;;;;5109345;28;20036;-86
2022/10/25 12:42:26;;;;;;;6.68;1.70;;;15.60;99.90;;;;;;5109656;28;20046;-87
2022/10/25 12:45:16;;;;;;;5.47;1.42;;;15.60;99.90;;;;;;5109342;28;20044;-87
2022/10/25 12:48:34;;;;;;;5.38;1.40;;;15.70;99.90;;;;;;5093377;28;20040;-86
2022/10/25 12:51:07;;;;;;;7.32;1.80;;;15.70;99.90;;;;;;5088408;28;20143;-85
2022/10/25 12:53:42;;;;;;;5.45;1.50;;;15.60;99.90;;;;;;5130011;28;20489;-86
2022/10/25 12:56:47;;;;;;;5.65;1.30;;;15.60;99.90;;;;;;5113110;28;20032;-86
2022/10/25 12:59:44;;;;;;;7.60;1.58;;;15.50;99.90;;;;;;5113571;28;20126;-86
2022/10/25 13:03:08;;;;;;;8.15;1.60;;;15.50;99.90;;;;;;5093206;28;20067;-86
2022/10/25 13:06:07;;;;;;;2.85;1.23;;;15.50;99.90;;;;;;5058354;28;20052;-86
2022/10/25 13:08:36;;;;;;;4.85;1.70;;;15.40;99.90;;;;;;5075485;28;20041;-86
2022/10/25 13:11:05;;;;;;;7.00;1.45;;;15.40;99.90;;;;;;5093971;28;20051;-87
2022/10/25 13:13:37;;;;;;;9.88;1.90;;;15.50;99.90;;;;;;5113316;28;20048;-85